PWSweather.com
Personal Weather Stations
Station Observations
WUFYI1828
Erie, CO

Erie, CO

Lat: 40.03382874, Lon: -105.04464722

Elevation: 5212

Station Type:

High Low Average
Temperature 24.6°F-4.1°C 21.0°F-6.1°C 23.0°F-5.0°C
Dew Point 23.2°F-4.9°C 19.0°F-7.2°C 21.3°F-5.9°C
Winds 5.1 mph 8.2 kmh Calm Calm 1.0 mph ESE1.6 kmh ESE
Wind Gusts 8.1 mph13.0 kmh -- 1.0 mph1.6 kmh
Humidity 96% 86% 94%
Pressure 29.83 in1010.2 mb 29.68 in1005.1 mb -
Precipitation 0.00 in0.0 mm - -
Hour Temp Dew Point Humidity Winds Wind Gusts Pressure Precip Precip Rate Daily Precip Total
12:04 AM 22.6°F-5.2°C 19.4°F-7.0°C 88% 1.8 mph NE2.9 kmh NE 4.5 mph7.2 kmh 29.81 in1009.5 mb 0.00 in0.0 mm 0.00 in0.0 mm 0.00 in0.0 mm
12:09 AM 22.6°F-5.2°C 19.8°F-6.8°C 89% 0.9 mph NE1.4 kmh NE 1.1 mph1.8 kmh 29.81 in1009.5 mb 0.00 in0.0 mm 0.00 in0.0 mm 0.00 in0.0 mm
12:14 AM 22.6°F-5.2°C 19.8°F-6.8°C 89% 0.7 mph ENE1.1 kmh ENE 2.2 mph3.5 kmh 29.81 in1009.5 mb 0.00 in0.0 mm 0.00 in0.0 mm 0.00 in0.0 mm
12:19 AM 22.6°F-5.2°C 19.8°F-6.8°C 89% 1.6 mph NE2.6 kmh NE 2.2 mph3.5 kmh 29.81 in1009.5 mb 0.00 in0.0 mm 0.00 in0.0 mm 0.00 in0.0 mm
12:24 AM 22.6°F-5.2°C 19.8°F-6.8°C 89% 0.9 mph ENE1.4 kmh ENE 2.2 mph3.5 kmh 29.80 in1009.1 mb 0.00 in0.0 mm 0.00 in0.0 mm 0.00 in0.0 mm
12:29 AM 22.8°F-5.1°C 19.9°F-6.7°C 89% 0.9 mph SSE1.4 kmh SSE 1.1 mph1.8 kmh 29.82 in1009.8 mb 0.00 in0.0 mm 0.00 in0.0 mm 0.00 in0.0 mm
12:34 AM 22.8°F-5.1°C 19.9°F-6.7°C 89% 2.2 mph E3.5 kmh E 2.2 mph3.5 kmh 29.82 in1009.8 mb 0.00 in0.0 mm 0.00 in0.0 mm 0.00 in0.0 mm
12:39 AM 22.8°F-5.1°C 20.3°F-6.5°C 90% 2.5 mph NE4.0 kmh NE 4.5 mph7.2 kmh 29.82 in1009.8 mb 0.00 in0.0 mm 0.00 in0.0 mm 0.00 in0.0 mm
12:44 AM 22.8°F-5.1°C 20.3°F-6.5°C 90% 0.9 mph NE1.4 kmh NE 2.2 mph3.5 kmh 29.82 in1009.8 mb 0.00 in0.0 mm 0.00 in0.0 mm 0.00 in0.0 mm
12:49 AM 23.0°F-5.0°C 20.5°F-6.4°C 90% 0.4 mph ENE0.6 kmh ENE 1.1 mph1.8 kmh 29.82 in1009.8 mb 0.00 in0.0 mm 0.00 in0.0 mm 0.00 in0.0 mm
12:54 AM 22.8°F-5.1°C 20.3°F-6.5°C 90% 0.7 mph ENE1.1 kmh ENE 2.2 mph3.5 kmh 29.82 in1009.8 mb 0.00 in0.0 mm 0.00 in0.0 mm 0.00 in0.0 mm
01:04 AM 22.8°F-5.1°C 20.3°F-6.5°C 90% 0.2 mph ENE0.3 kmh ENE 1.1 mph1.8 kmh 29.82 in1009.8 mb 0.00 in0.0 mm 0.00 in0.0 mm 0.00 in0.0 mm
01:09 AM 22.6°F-5.2°C 20.5°F-6.4°C 91% 0.4 mph E0.6 kmh E 1.1 mph1.8 kmh 29.81 in1009.5 mb 0.00 in0.0 mm 0.00 in0.0 mm 0.00 in0.0 mm
01:14 AM 22.8°F-5.1°C 20.7°F-6.3°C 91% 0.7 mph E1.1 kmh E 1.1 mph1.8 kmh 29.82 in1009.8 mb 0.00 in0.0 mm 0.00 in0.0 mm 0.00 in0.0 mm
01:19 AM 22.8°F-5.1°C 20.7°F-6.3°C 91% 0.7 mph E1.1 kmh E 1.1 mph1.8 kmh 29.82 in1009.8 mb 0.00 in0.0 mm 0.00 in0.0 mm 0.00 in0.0 mm
01:24 AM 22.6°F-5.2°C 20.5°F-6.4°C 91% Calm Calm -- 29.82 in1009.8 mb 0.00 in0.0 mm 0.00 in0.0 mm 0.00 in0.0 mm
01:29 AM 22.6°F-5.2°C 20.5°F-6.4°C 91% Calm Calm -- 29.81 in1009.5 mb 0.00 in0.0 mm 0.00 in0.0 mm 0.00 in0.0 mm
01:34 AM 23.0°F-5.0°C 20.8°F-6.2°C 91% Calm Calm -- 29.83 in1010.2 mb 0.00 in0.0 mm 0.00 in0.0 mm 0.00 in0.0 mm
01:39 AM 22.8°F-5.1°C 20.7°F-6.3°C 91% 0.7 mph ENE1.1 kmh ENE 1.1 mph1.8 kmh 29.82 in1009.8 mb 0.00 in0.0 mm 0.00 in0.0 mm 0.00 in0.0 mm
01:44 AM 22.8°F-5.1°C 20.8°F-6.2°C 92% 0.7 mph S1.1 kmh S 1.1 mph1.8 kmh 29.83 in1010.2 mb 0.00 in0.0 mm 0.00 in0.0 mm 0.00 in0.0 mm
01:49 AM 22.6°F-5.2°C 20.7°F-6.3°C 92% 1.3 mph NE2.1 kmh NE 2.2 mph3.5 kmh 29.82 in1009.8 mb 0.00 in0.0 mm 0.00 in0.0 mm 0.00 in0.0 mm
01:54 AM 22.6°F-5.2°C 20.7°F-6.3°C 92% 0.2 mph ENE0.3 kmh ENE 1.1 mph1.8 kmh 29.82 in1009.8 mb 0.00 in0.0 mm 0.00 in0.0 mm 0.00 in0.0 mm
01:59 AM 22.8°F-5.1°C 20.8°F-6.2°C 92% Calm Calm -- 29.81 in1009.5 mb 0.00 in0.0 mm 0.00 in0.0 mm 0.00 in0.0 mm
02:04 AM 22.8°F-5.1°C 21.0°F-6.1°C 93% 0.2 mph NE0.3 kmh NE 1.1 mph1.8 kmh 29.82 in1009.8 mb 0.00 in0.0 mm 0.00 in0.0 mm 0.00 in0.0 mm
02:09 AM 22.3°F-5.4°C 20.1°F-6.6°C 91% Calm Calm -- 29.82 in1009.8 mb 0.00 in0.0 mm 0.00 in0.0 mm 0.00 in0.0 mm
02:14 AM 22.6°F-5.2°C 19.2°F-7.1°C 87% Calm Calm -- 29.82 in1009.8 mb 0.00 in0.0 mm 0.00 in0.0 mm 0.00 in0.0 mm
02:19 AM 22.6°F-5.2°C 19.2°F-7.1°C 87% Calm Calm -- 29.81 in1009.5 mb 0.00 in0.0 mm 0.00 in0.0 mm 0.00 in0.0 mm
02:24 AM 22.6°F-5.2°C 19.2°F-7.1°C 87% Calm Calm -- 29.81 in1009.5 mb 0.00 in0.0 mm 0.00 in0.0 mm 0.00 in0.0 mm
02:29 AM 22.8°F-5.1°C 19.4°F-7.0°C 87% 0.4 mph E0.6 kmh E 1.1 mph1.8 kmh 29.81 in1009.5 mb 0.00 in0.0 mm 0.00 in0.0 mm 0.00 in0.0 mm
02:34 AM 22.8°F-5.1°C 19.2°F-7.1°C 86% 0.9 mph SSE1.4 kmh SSE 1.1 mph1.8 kmh 29.81 in1009.5 mb 0.00 in0.0 mm 0.00 in0.0 mm 0.00 in0.0 mm
02:39 AM 22.6°F-5.2°C 19.2°F-7.1°C 87% 1.6 mph SSW2.6 kmh SSW 2.2 mph3.5 kmh 29.80 in1009.1 mb 0.00 in0.0 mm 0.00 in0.0 mm 0.00 in0.0 mm
02:44 AM 22.8°F-5.1°C 19.4°F-7.0°C 87% 0.9 mph SW1.4 kmh SW 1.1 mph1.8 kmh 29.81 in1009.5 mb 0.00 in0.0 mm 0.00 in0.0 mm 0.00 in0.0 mm
02:49 AM 22.6°F-5.2°C 19.2°F-7.1°C 87% 1.1 mph SW1.8 kmh SW 1.1 mph1.8 kmh 29.81 in1009.5 mb 0.00 in0.0 mm 0.00 in0.0 mm 0.00 in0.0 mm
02:54 AM 22.6°F-5.2°C 19.2°F-7.1°C 87% 0.4 mph SW0.6 kmh SW 1.1 mph1.8 kmh 29.80 in1009.1 mb 0.00 in0.0 mm 0.00 in0.0 mm 0.00 in0.0 mm
02:59 AM 22.5°F-5.3°C 19.0°F-7.2°C 87% Calm Calm -- 29.80 in1009.1 mb 0.00 in0.0 mm 0.00 in0.0 mm 0.00 in0.0 mm
03:04 AM 22.5°F-5.3°C 19.0°F-7.2°C 87% 1.8 mph SW2.9 kmh SW 2.2 mph3.5 kmh 29.80 in1009.1 mb 0.00 in0.0 mm 0.00 in0.0 mm 0.00 in0.0 mm
03:09 AM 22.3°F-5.4°C 19.0°F-7.2°C 88% 1.6 mph SW2.6 kmh SW 2.2 mph3.5 kmh 29.80 in1009.1 mb 0.00 in0.0 mm 0.00 in0.0 mm 0.00 in0.0 mm
03:14 AM 22.3°F-5.4°C 19.0°F-7.2°C 88% 0.4 mph SW0.6 kmh SW 1.1 mph1.8 kmh 29.80 in1009.1 mb 0.00 in0.0 mm 0.00 in0.0 mm 0.00 in0.0 mm
03:19 AM 22.3°F-5.4°C 19.0°F-7.2°C 88% 0.7 mph SW1.1 kmh SW 1.1 mph1.8 kmh 29.80 in1009.1 mb 0.00 in0.0 mm 0.00 in0.0 mm 0.00 in0.0 mm
03:24 AM 22.5°F-5.3°C 19.6°F-6.9°C 89% 1.6 mph SW2.6 kmh SW 2.2 mph3.5 kmh 29.80 in1009.1 mb 0.00 in0.0 mm 0.00 in0.0 mm 0.00 in0.0 mm
03:29 AM 22.5°F-5.3°C 19.6°F-6.9°C 89% 1.8 mph SSW2.9 kmh SSW 2.2 mph3.5 kmh 29.79 in1008.8 mb 0.00 in0.0 mm 0.00 in0.0 mm 0.00 in0.0 mm
03:34 AM 22.5°F-5.3°C 19.9°F-6.7°C 90% 0.2 mph SSW0.3 kmh SSW 1.1 mph1.8 kmh 29.80 in1009.1 mb 0.00 in0.0 mm 0.00 in0.0 mm 0.00 in0.0 mm
03:39 AM 22.3°F-5.4°C 19.8°F-6.8°C 90% 0.7 mph ESE1.1 kmh ESE 1.1 mph1.8 kmh 29.79 in1008.8 mb 0.00 in0.0 mm 0.00 in0.0 mm 0.00 in0.0 mm
03:44 AM 22.3°F-5.4°C 20.1°F-6.6°C 91% Calm Calm -- 29.79 in1008.8 mb 0.00 in0.0 mm 0.00 in0.0 mm 0.00 in0.0 mm
03:49 AM 22.3°F-5.4°C 20.1°F-6.6°C 91% Calm Calm -- 29.79 in1008.8 mb 0.00 in0.0 mm 0.00 in0.0 mm 0.00 in0.0 mm
03:54 AM 22.3°F-5.4°C 20.3°F-6.5°C 92% Calm Calm -- 29.79 in1008.8 mb 0.00 in0.0 mm 0.00 in0.0 mm 0.00 in0.0 mm
03:59 AM 22.5°F-5.3°C 20.7°F-6.3°C 93% 1.1 mph NE1.8 kmh NE 2.2 mph3.5 kmh 29.79 in1008.8 mb 0.00 in0.0 mm 0.00 in0.0 mm 0.00 in0.0 mm
04:04 AM 22.3°F-5.4°C 20.5°F-6.4°C 93% Calm Calm -- 29.79 in1008.8 mb 0.00 in0.0 mm 0.00 in0.0 mm 0.00 in0.0 mm
04:09 AM 22.5°F-5.3°C 20.7°F-6.3°C 93% Calm Calm -- 29.78 in1008.5 mb 0.00 in0.0 mm 0.00 in0.0 mm 0.00 in0.0 mm
04:14 AM 22.3°F-5.4°C 20.5°F-6.4°C 93% Calm Calm -- 29.79 in1008.8 mb 0.00 in0.0 mm 0.00 in0.0 mm 0.00 in0.0 mm
04:19 AM 22.3°F-5.4°C 20.5°F-6.4°C 93% 0.7 mph ENE1.1 kmh ENE 2.2 mph3.5 kmh 29.78 in1008.5 mb 0.00 in0.0 mm 0.00 in0.0 mm 0.00 in0.0 mm
04:24 AM 22.1°F-5.5°C 20.5°F-6.4°C 94% 0.4 mph ENE0.6 kmh ENE 1.1 mph1.8 kmh 29.78 in1008.5 mb 0.00 in0.0 mm 0.00 in0.0 mm 0.00 in0.0 mm
04:29 AM 22.3°F-5.4°C 20.7°F-6.3°C 94% 1.3 mph ENE2.1 kmh ENE 2.2 mph3.5 kmh 29.79 in1008.8 mb 0.00 in0.0 mm 0.00 in0.0 mm 0.00 in0.0 mm
04:34 AM 22.3°F-5.4°C 21.0°F-6.1°C 95% 1.1 mph NE1.8 kmh NE 2.2 mph3.5 kmh 29.78 in1008.5 mb 0.00 in0.0 mm 0.00 in0.0 mm 0.00 in0.0 mm
04:39 AM 22.3°F-5.4°C 21.0°F-6.1°C 95% 0.7 mph NE1.1 kmh NE 1.1 mph1.8 kmh 29.78 in1008.5 mb 0.00 in0.0 mm 0.00 in0.0 mm 0.00 in0.0 mm
04:44 AM 22.3°F-5.4°C 21.0°F-6.1°C 95% 2.9 mph ENE4.7 kmh ENE 3.4 mph5.5 kmh 29.78 in1008.5 mb 0.00 in0.0 mm 0.00 in0.0 mm 0.00 in0.0 mm
04:49 AM 22.3°F-5.4°C 21.0°F-6.1°C 95% 1.3 mph NE2.1 kmh NE 3.4 mph5.5 kmh 29.78 in1008.5 mb 0.00 in0.0 mm 0.00 in0.0 mm 0.00 in0.0 mm
04:54 AM 22.3°F-5.4°C 21.4°F-5.9°C 96% 1.8 mph ENE2.9 kmh ENE 3.4 mph5.5 kmh 29.77 in1008.1 mb 0.00 in0.0 mm 0.00 in0.0 mm 0.00 in0.0 mm
04:59 AM 21.9°F-5.6°C 21.0°F-6.1°C 96% 3.4 mph E5.5 kmh E 4.5 mph7.2 kmh 29.78 in1008.5 mb 0.00 in0.0 mm 0.00 in0.0 mm 0.00 in0.0 mm
05:04 AM 21.6°F-5.8°C 20.7°F-6.3°C 96% 2.7 mph NE4.3 kmh NE 5.8 mph9.3 kmh 29.77 in1008.1 mb 0.00 in0.0 mm 0.00 in0.0 mm 0.00 in0.0 mm
05:09 AM 21.6°F-5.8°C 20.7°F-6.3°C 96% 2.9 mph E4.7 kmh E 3.4 mph5.5 kmh 29.77 in1008.1 mb 0.00 in0.0 mm 0.00 in0.0 mm 0.00 in0.0 mm
05:14 AM 21.4°F-5.9°C 20.5°F-6.4°C 96% 3.6 mph ENE5.8 kmh ENE 5.8 mph9.3 kmh 29.77 in1008.1 mb 0.00 in0.0 mm 0.00 in0.0 mm 0.00 in0.0 mm
05:19 AM 21.4°F-5.9°C 20.5°F-6.4°C 96% 4.3 mph E6.9 kmh E 8.1 mph13.0 kmh 29.77 in1008.1 mb 0.00 in0.0 mm 0.00 in0.0 mm 0.00 in0.0 mm
05:24 AM 21.4°F-5.9°C 20.1°F-6.6°C 95% 4.5 mph E7.2 kmh E 5.8 mph9.3 kmh 29.77 in1008.1 mb 0.00 in0.0 mm 0.00 in0.0 mm 0.00 in0.0 mm
05:29 AM 21.4°F-5.9°C 20.1°F-6.6°C 95% 2.9 mph NE4.7 kmh NE 4.5 mph7.2 kmh 29.76 in1007.8 mb 0.00 in0.0 mm 0.00 in0.0 mm 0.00 in0.0 mm
05:34 AM 21.4°F-5.9°C 20.1°F-6.6°C 95% 1.8 mph ENE2.9 kmh ENE 3.4 mph5.5 kmh 29.78 in1008.5 mb 0.00 in0.0 mm 0.00 in0.0 mm 0.00 in0.0 mm
05:39 AM 21.4°F-5.9°C 20.1°F-6.6°C 95% 2.5 mph E4.0 kmh E 4.5 mph7.2 kmh 29.78 in1008.5 mb 0.00 in0.0 mm 0.00 in0.0 mm 0.00 in0.0 mm
05:44 AM 21.4°F-5.9°C 20.5°F-6.4°C 96% 2.5 mph NE4.0 kmh NE 5.8 mph9.3 kmh 29.77 in1008.1 mb 0.00 in0.0 mm 0.00 in0.0 mm 0.00 in0.0 mm
05:49 AM 21.4°F-5.9°C 20.5°F-6.4°C 96% 0.7 mph NE1.1 kmh NE 2.2 mph3.5 kmh 29.78 in1008.5 mb 0.00 in0.0 mm 0.00 in0.0 mm 0.00 in0.0 mm
05:54 AM 21.6°F-5.8°C 20.3°F-6.5°C 95% 0.2 mph E0.3 kmh E 1.1 mph1.8 kmh 29.78 in1008.5 mb 0.00 in0.0 mm 0.00 in0.0 mm 0.00 in0.0 mm
05:59 AM 21.6°F-5.8°C 20.3°F-6.5°C 95% 2.2 mph E3.5 kmh E 2.2 mph3.5 kmh 29.78 in1008.5 mb 0.00 in0.0 mm 0.00 in0.0 mm 0.00 in0.0 mm
06:04 AM 21.4°F-5.9°C 20.1°F-6.6°C 95% 2.0 mph NE3.2 kmh NE 3.4 mph5.5 kmh 29.78 in1008.5 mb 0.00 in0.0 mm 0.00 in0.0 mm 0.00 in0.0 mm
06:09 AM 21.6°F-5.8°C 20.3°F-6.5°C 95% 4.0 mph ENE6.4 kmh ENE 5.8 mph9.3 kmh 29.78 in1008.5 mb 0.00 in0.0 mm 0.00 in0.0 mm 0.00 in0.0 mm
06:14 AM 21.6°F-5.8°C 20.3°F-6.5°C 95% 1.6 mph E2.6 kmh E 2.2 mph3.5 kmh 29.78 in1008.5 mb 0.00 in0.0 mm 0.00 in0.0 mm 0.00 in0.0 mm
06:19 AM 21.6°F-5.8°C 20.3°F-6.5°C 95% 0.7 mph ENE1.1 kmh ENE 2.2 mph3.5 kmh 29.78 in1008.5 mb 0.00 in0.0 mm 0.00 in0.0 mm 0.00 in0.0 mm
06:24 AM 21.4°F-5.9°C 20.1°F-6.6°C 95% 2.0 mph E3.2 kmh E 3.4 mph5.5 kmh 29.78 in1008.5 mb 0.00 in0.0 mm 0.00 in0.0 mm 0.00 in0.0 mm
06:29 AM 21.4°F-5.9°C 20.1°F-6.6°C 95% 1.3 mph NE2.1 kmh NE 2.2 mph3.5 kmh 29.78 in1008.5 mb 0.00 in0.0 mm 0.00 in0.0 mm 0.00 in0.0 mm
06:34 AM 21.6°F-5.8°C 20.3°F-6.5°C 95% 0.9 mph ENE1.4 kmh ENE 1.1 mph1.8 kmh 29.77 in1008.1 mb 0.00 in0.0 mm 0.00 in0.0 mm 0.00 in0.0 mm
06:39 AM 21.6°F-5.8°C 20.3°F-6.5°C 95% 1.3 mph NE2.1 kmh NE 2.2 mph3.5 kmh 29.78 in1008.5 mb 0.00 in0.0 mm 0.00 in0.0 mm 0.00 in0.0 mm
06:44 AM 21.6°F-5.8°C 20.3°F-6.5°C 95% 2.2 mph NE3.5 kmh NE 2.2 mph3.5 kmh 29.78 in1008.5 mb 0.00 in0.0 mm 0.00 in0.0 mm 0.00 in0.0 mm
06:49 AM 21.6°F-5.8°C 20.3°F-6.5°C 95% 1.3 mph N2.1 kmh N 2.2 mph3.5 kmh 29.77 in1008.1 mb 0.00 in0.0 mm 0.00 in0.0 mm 0.00 in0.0 mm
06:54 AM 21.6°F-5.8°C 20.3°F-6.5°C 95% 0.2 mph E0.3 kmh E 1.1 mph1.8 kmh 29.77 in1008.1 mb 0.00 in0.0 mm 0.00 in0.0 mm 0.00 in0.0 mm
06:59 AM 21.4°F-5.9°C 20.1°F-6.6°C 95% 0.2 mph ENE0.3 kmh ENE 1.1 mph1.8 kmh 29.78 in1008.5 mb 0.00 in0.0 mm 0.00 in0.0 mm 0.00 in0.0 mm
07:04 AM 21.6°F-5.8°C 20.3°F-6.5°C 95% 1.8 mph NE2.9 kmh NE 2.2 mph3.5 kmh 29.77 in1008.1 mb 0.00 in0.0 mm 0.00 in0.0 mm 0.00 in0.0 mm
07:09 AM 21.6°F-5.8°C 20.3°F-6.5°C 95% Calm Calm -- 29.77 in1008.1 mb 0.00 in0.0 mm 0.00 in0.0 mm 0.00 in0.0 mm
07:14 AM 21.6°F-5.8°C 20.3°F-6.5°C 95% Calm Calm -- 29.77 in1008.1 mb 0.00 in0.0 mm 0.00 in0.0 mm 0.00 in0.0 mm
07:19 AM 21.6°F-5.8°C 20.3°F-6.5°C 95% 0.2 mph E0.3 kmh E 1.1 mph1.8 kmh 29.77 in1008.1 mb 0.00 in0.0 mm 0.00 in0.0 mm 0.00 in0.0 mm
07:24 AM 21.6°F-5.8°C 20.3°F-6.5°C 95% 1.3 mph NE2.1 kmh NE 3.4 mph5.5 kmh 29.77 in1008.1 mb 0.00 in0.0 mm 0.00 in0.0 mm 0.00 in0.0 mm
07:28 AM 21.6°F-5.8°C 20.3°F-6.5°C 95% 0.9 mph ENE1.4 kmh ENE 2.2 mph3.5 kmh 29.77 in1008.1 mb 0.00 in0.0 mm 0.00 in0.0 mm 0.00 in0.0 mm
07:34 AM 21.6°F-5.8°C 20.3°F-6.5°C 95% 1.3 mph NE2.1 kmh NE 2.2 mph3.5 kmh 29.77 in1008.1 mb 0.00 in0.0 mm 0.00 in0.0 mm 0.00 in0.0 mm
07:39 AM 21.6°F-5.8°C 20.3°F-6.5°C 95% 2.0 mph NE3.2 kmh NE 4.5 mph7.2 kmh 29.76 in1007.8 mb 0.00 in0.0 mm 0.00 in0.0 mm 0.00 in0.0 mm
07:44 AM 21.6°F-5.8°C 20.3°F-6.5°C 95% 1.1 mph E1.8 kmh E 3.4 mph5.5 kmh 29.76 in1007.8 mb 0.00 in0.0 mm 0.00 in0.0 mm 0.00 in0.0 mm
07:49 AM 21.4°F-5.9°C 20.1°F-6.6°C 95% 2.9 mph NE4.7 kmh NE 3.4 mph5.5 kmh 29.76 in1007.8 mb 0.00 in0.0 mm 0.00 in0.0 mm 0.00 in0.0 mm
07:54 AM 21.4°F-5.9°C 20.1°F-6.6°C 95% Calm Calm -- 29.77 in1008.1 mb 0.00 in0.0 mm 0.00 in0.0 mm 0.00 in0.0 mm
07:59 AM 21.6°F-5.8°C 20.3°F-6.5°C 95% 0.2 mph ENE0.3 kmh ENE 1.1 mph1.8 kmh 29.76 in1007.8 mb 0.00 in0.0 mm 0.00 in0.0 mm 0.00 in0.0 mm
08:04 AM 21.6°F-5.8°C 20.3°F-6.5°C 95% 0.9 mph ENE1.4 kmh ENE 1.1 mph1.8 kmh 29.77 in1008.1 mb 0.00 in0.0 mm 0.00 in0.0 mm 0.00 in0.0 mm
08:09 AM 21.6°F-5.8°C 20.3°F-6.5°C 95% 1.6 mph ENE2.6 kmh ENE 2.2 mph3.5 kmh 29.77 in1008.1 mb 0.00 in0.0 mm 0.00 in0.0 mm 0.00 in0.0 mm
08:14 AM 21.6°F-5.8°C 20.3°F-6.5°C 95% 2.5 mph ENE4.0 kmh ENE 4.5 mph7.2 kmh 29.77 in1008.1 mb 0.00 in0.0 mm 0.00 in0.0 mm 0.00 in0.0 mm
08:19 AM 21.0°F-6.1°C 19.8°F-6.8°C 95% 2.2 mph NE3.5 kmh NE 3.4 mph5.5 kmh 29.77 in1008.1 mb 0.00 in0.0 mm 0.00 in0.0 mm 0.00 in0.0 mm
08:24 AM 21.0°F-6.1°C 19.8°F-6.8°C 95% 3.4 mph NE5.5 kmh NE 3.4 mph5.5 kmh 29.77 in1008.1 mb 0.00 in0.0 mm 0.00 in0.0 mm 0.00 in0.0 mm
08:29 AM 21.2°F-6.0°C 19.9°F-6.7°C 95% 2.9 mph E4.7 kmh E 4.5 mph7.2 kmh 29.77 in1008.1 mb 0.00 in0.0 mm 0.00 in0.0 mm 0.00 in0.0 mm
08:34 AM 21.0°F-6.1°C 19.8°F-6.8°C 95% 1.3 mph E2.1 kmh E 2.2 mph3.5 kmh 29.77 in1008.1 mb 0.00 in0.0 mm 0.00 in0.0 mm 0.00 in0.0 mm
08:39 AM 21.2°F-6.0°C 19.9°F-6.7°C 95% 1.3 mph ENE2.1 kmh ENE 3.4 mph5.5 kmh 29.77 in1008.1 mb 0.00 in0.0 mm 0.00 in0.0 mm 0.00 in0.0 mm
08:44 AM 21.4°F-5.9°C 20.1°F-6.6°C 95% 1.1 mph ENE1.8 kmh ENE 3.4 mph5.5 kmh 29.78 in1008.5 mb 0.00 in0.0 mm 0.00 in0.0 mm 0.00 in0.0 mm
08:49 AM 21.6°F-5.8°C 20.3°F-6.5°C 95% 0.7 mph S1.1 kmh S 2.2 mph3.5 kmh 29.77 in1008.1 mb 0.00 in0.0 mm 0.00 in0.0 mm 0.00 in0.0 mm
08:54 AM 21.6°F-5.8°C 20.3°F-6.5°C 95% 0.7 mph N1.1 kmh N 1.1 mph1.8 kmh 29.77 in1008.1 mb 0.00 in0.0 mm 0.00 in0.0 mm 0.00 in0.0 mm
08:59 AM 21.4°F-5.9°C 20.1°F-6.6°C 95% 0.2 mph ENE0.3 kmh ENE 1.1 mph1.8 kmh 29.77 in1008.1 mb 0.00 in0.0 mm 0.00 in0.0 mm 0.00 in0.0 mm
09:04 AM 21.4°F-5.9°C 20.1°F-6.6°C 95% 1.6 mph ENE2.6 kmh ENE 3.4 mph5.5 kmh 29.77 in1008.1 mb 0.00 in0.0 mm 0.00 in0.0 mm 0.00 in0.0 mm
09:09 AM 21.2°F-6.0°C 19.9°F-6.7°C 95% 0.2 mph ENE0.3 kmh ENE 1.1 mph1.8 kmh 29.77 in1008.1 mb 0.00 in0.0 mm 0.00 in0.0 mm 0.00 in0.0 mm
09:14 AM 21.4°F-5.9°C 20.1°F-6.6°C 95% 0.2 mph ENE0.3 kmh ENE 1.1 mph1.8 kmh 29.77 in1008.1 mb 0.00 in0.0 mm 0.00 in0.0 mm 0.00 in0.0 mm
09:19 AM 21.6°F-5.8°C 20.3°F-6.5°C 95% 1.1 mph ENE1.8 kmh ENE 3.4 mph5.5 kmh 29.77 in1008.1 mb 0.00 in0.0 mm 0.00 in0.0 mm 0.00 in0.0 mm
09:24 AM 21.4°F-5.9°C 20.1°F-6.6°C 95% 0.2 mph ENE0.3 kmh ENE 1.1 mph1.8 kmh 29.77 in1008.1 mb 0.00 in0.0 mm 0.00 in0.0 mm 0.00 in0.0 mm
09:29 AM 21.6°F-5.8°C 20.7°F-6.3°C 96% 2.2 mph ENE3.5 kmh ENE 3.4 mph5.5 kmh 29.77 in1008.1 mb 0.00 in0.0 mm 0.00 in0.0 mm 0.00 in0.0 mm
09:34 AM 21.4°F-5.9°C 20.5°F-6.4°C 96% 1.6 mph NE2.6 kmh NE 3.4 mph5.5 kmh 29.77 in1008.1 mb 0.00 in0.0 mm 0.00 in0.0 mm 0.00 in0.0 mm
09:39 AM 21.4°F-5.9°C 20.5°F-6.4°C 96% 2.2 mph ENE3.5 kmh ENE 3.4 mph5.5 kmh 29.77 in1008.1 mb 0.00 in0.0 mm 0.00 in0.0 mm 0.00 in0.0 mm
09:44 AM 21.4°F-5.9°C 20.5°F-6.4°C 96% 0.2 mph E0.3 kmh E 1.1 mph1.8 kmh 29.77 in1008.1 mb 0.00 in0.0 mm 0.00 in0.0 mm 0.00 in0.0 mm
09:49 AM 21.6°F-5.8°C 20.7°F-6.3°C 96% 0.4 mph E0.6 kmh E 1.1 mph1.8 kmh 29.78 in1008.5 mb 0.00 in0.0 mm 0.00 in0.0 mm 0.00 in0.0 mm
09:54 AM 21.7°F-5.7°C 20.8°F-6.2°C 96% 1.8 mph ENE2.9 kmh ENE 4.5 mph7.2 kmh 29.77 in1008.1 mb 0.00 in0.0 mm 0.00 in0.0 mm 0.00 in0.0 mm
09:59 AM 21.6°F-5.8°C 20.7°F-6.3°C 96% 1.3 mph ENE2.1 kmh ENE 2.2 mph3.5 kmh 29.77 in1008.1 mb 0.00 in0.0 mm 0.00 in0.0 mm 0.00 in0.0 mm
10:04 AM 21.9°F-5.6°C 21.0°F-6.1°C 96% 0.2 mph E0.3 kmh E 1.1 mph1.8 kmh 29.77 in1008.1 mb 0.00 in0.0 mm 0.00 in0.0 mm 0.00 in0.0 mm
10:09 AM 22.1°F-5.5°C 20.8°F-6.2°C 95% 1.3 mph E2.1 kmh E 2.2 mph3.5 kmh 29.77 in1008.1 mb 0.00 in0.0 mm 0.00 in0.0 mm 0.00 in0.0 mm
10:14 AM 22.1°F-5.5°C 20.8°F-6.2°C 95% 2.5 mph ENE4.0 kmh ENE 3.4 mph5.5 kmh 29.78 in1008.5 mb 0.00 in0.0 mm 0.00 in0.0 mm 0.00 in0.0 mm
10:19 AM 21.9°F-5.6°C 21.0°F-6.1°C 96% 0.7 mph E1.1 kmh E 2.2 mph3.5 kmh 29.76 in1007.8 mb 0.00 in0.0 mm 0.00 in0.0 mm 0.00 in0.0 mm
10:24 AM 22.1°F-5.5°C 21.2°F-6.0°C 96% 1.8 mph NE2.9 kmh NE 3.4 mph5.5 kmh 29.77 in1008.1 mb 0.00 in0.0 mm 0.00 in0.0 mm 0.00 in0.0 mm
10:29 AM 21.9°F-5.6°C 21.0°F-6.1°C 96% 1.6 mph ENE2.6 kmh ENE 2.2 mph3.5 kmh 29.76 in1007.8 mb 0.00 in0.0 mm 0.00 in0.0 mm 0.00 in0.0 mm
10:34 AM 22.1°F-5.5°C 21.2°F-6.0°C 96% 1.3 mph ENE2.1 kmh ENE 2.2 mph3.5 kmh 29.76 in1007.8 mb 0.00 in0.0 mm 0.00 in0.0 mm 0.00 in0.0 mm
10:39 AM 22.1°F-5.5°C 21.2°F-6.0°C 96% 0.7 mph NE1.1 kmh NE 2.2 mph3.5 kmh 29.76 in1007.8 mb 0.00 in0.0 mm 0.00 in0.0 mm 0.00 in0.0 mm
10:44 AM 22.1°F-5.5°C 20.8°F-6.2°C 95% 4.0 mph NE6.4 kmh NE 5.8 mph9.3 kmh 29.76 in1007.8 mb 0.00 in0.0 mm 0.00 in0.0 mm 0.00 in0.0 mm
10:49 AM 21.9°F-5.6°C 20.7°F-6.3°C 95% 1.6 mph NE2.6 kmh NE 2.2 mph3.5 kmh 29.76 in1007.8 mb 0.00 in0.0 mm 0.00 in0.0 mm 0.00 in0.0 mm
10:54 AM 22.1°F-5.5°C 20.8°F-6.2°C 95% 1.8 mph E2.9 kmh E 3.4 mph5.5 kmh 29.76 in1007.8 mb 0.00 in0.0 mm 0.00 in0.0 mm 0.00 in0.0 mm
10:59 AM 22.1°F-5.5°C 20.8°F-6.2°C 95% 3.4 mph NE5.5 kmh NE 4.5 mph7.2 kmh 29.75 in1007.5 mb 0.00 in0.0 mm 0.00 in0.0 mm 0.00 in0.0 mm
11:04 AM 22.5°F-5.3°C 21.2°F-6.0°C 95% Calm Calm -- 29.75 in1007.5 mb 0.00 in0.0 mm 0.00 in0.0 mm 0.00 in0.0 mm
11:09 AM 22.5°F-5.3°C 21.2°F-6.0°C 95% 0.4 mph ENE0.6 kmh ENE 1.1 mph1.8 kmh 29.75 in1007.5 mb 0.00 in0.0 mm 0.00 in0.0 mm 0.00 in0.0 mm
11:14 AM 22.5°F-5.3°C 21.2°F-6.0°C 95% 2.5 mph NE4.0 kmh NE 3.4 mph5.5 kmh 29.75 in1007.5 mb 0.00 in0.0 mm 0.00 in0.0 mm 0.00 in0.0 mm
11:19 AM 22.3°F-5.4°C 21.0°F-6.1°C 95% 0.4 mph NE0.6 kmh NE 1.1 mph1.8 kmh 29.76 in1007.8 mb 0.00 in0.0 mm 0.00 in0.0 mm 0.00 in0.0 mm
11:24 AM 22.5°F-5.3°C 21.2°F-6.0°C 95% 1.3 mph NE2.1 kmh NE 2.2 mph3.5 kmh 29.75 in1007.5 mb 0.00 in0.0 mm 0.00 in0.0 mm 0.00 in0.0 mm
11:29 AM 22.3°F-5.4°C 21.0°F-6.1°C 95% Calm Calm -- 29.74 in1007.1 mb 0.00 in0.0 mm 0.00 in0.0 mm 0.00 in0.0 mm
11:34 AM 22.6°F-5.2°C 21.4°F-5.9°C 95% 3.1 mph NE5.0 kmh NE 3.4 mph5.5 kmh 29.74 in1007.1 mb 0.00 in0.0 mm 0.00 in0.0 mm 0.00 in0.0 mm
11:39 AM 22.6°F-5.2°C 21.4°F-5.9°C 95% 1.1 mph ENE1.8 kmh ENE 1.1 mph1.8 kmh 29.74 in1007.1 mb 0.00 in0.0 mm 0.00 in0.0 mm 0.00 in0.0 mm
11:44 AM 22.8°F-5.1°C 21.6°F-5.8°C 95% 3.4 mph ENE5.5 kmh ENE 4.5 mph7.2 kmh 29.75 in1007.5 mb 0.00 in0.0 mm 0.00 in0.0 mm 0.00 in0.0 mm
11:49 AM 22.8°F-5.1°C 21.6°F-5.8°C 95% 2.0 mph NE3.2 kmh NE 3.4 mph5.5 kmh 29.74 in1007.1 mb 0.00 in0.0 mm 0.00 in0.0 mm 0.00 in0.0 mm
11:54 AM 22.8°F-5.1°C 21.6°F-5.8°C 95% 0.4 mph E0.6 kmh E 1.1 mph1.8 kmh 29.74 in1007.1 mb 0.00 in0.0 mm 0.00 in0.0 mm 0.00 in0.0 mm
11:59 AM 22.8°F-5.1°C 21.6°F-5.8°C 95% 0.7 mph E1.1 kmh E 1.1 mph1.8 kmh 29.74 in1007.1 mb 0.00 in0.0 mm 0.00 in0.0 mm 0.00 in0.0 mm
12:04 PM 23.0°F-5.0°C 21.7°F-5.7°C 95% Calm Calm -- 29.75 in1007.5 mb 0.00 in0.0 mm 0.00 in0.0 mm 0.00 in0.0 mm
12:09 PM 22.8°F-5.1°C 21.6°F-5.8°C 95% 2.9 mph ENE4.7 kmh ENE 3.4 mph5.5 kmh 29.73 in1006.8 mb 0.00 in0.0 mm 0.00 in0.0 mm 0.00 in0.0 mm
12:14 PM 23.2°F-4.9°C 21.9°F-5.6°C 95% 2.0 mph ENE3.2 kmh ENE 3.4 mph5.5 kmh 29.74 in1007.1 mb 0.00 in0.0 mm 0.00 in0.0 mm 0.00 in0.0 mm
12:19 PM 23.0°F-5.0°C 21.7°F-5.7°C 95% 1.8 mph NE2.9 kmh NE 2.2 mph3.5 kmh 29.73 in1006.8 mb 0.00 in0.0 mm 0.00 in0.0 mm 0.00 in0.0 mm
12:24 PM 22.8°F-5.1°C 21.6°F-5.8°C 95% 0.2 mph ENE0.3 kmh ENE 1.1 mph1.8 kmh 29.74 in1007.1 mb 0.00 in0.0 mm 0.00 in0.0 mm 0.00 in0.0 mm
12:29 PM 22.8°F-5.1°C 21.6°F-5.8°C 95% 2.9 mph NE4.7 kmh NE 3.4 mph5.5 kmh 29.73 in1006.8 mb 0.00 in0.0 mm 0.00 in0.0 mm 0.00 in0.0 mm
12:34 PM 23.0°F-5.0°C 21.7°F-5.7°C 95% 1.8 mph NE2.9 kmh NE 2.2 mph3.5 kmh 29.74 in1007.1 mb 0.00 in0.0 mm 0.00 in0.0 mm 0.00 in0.0 mm
12:39 PM 23.0°F-5.0°C 21.7°F-5.7°C 95% 0.2 mph ENE0.3 kmh ENE 1.1 mph1.8 kmh 29.73 in1006.8 mb 0.00 in0.0 mm 0.00 in0.0 mm 0.00 in0.0 mm
12:44 PM 23.0°F-5.0°C 21.7°F-5.7°C 95% 0.9 mph ENE1.4 kmh ENE 2.2 mph3.5 kmh 29.73 in1006.8 mb 0.00 in0.0 mm 0.00 in0.0 mm 0.00 in0.0 mm
12:49 PM 23.0°F-5.0°C 21.7°F-5.7°C 95% 0.7 mph ENE1.1 kmh ENE 1.1 mph1.8 kmh 29.73 in1006.8 mb 0.00 in0.0 mm 0.00 in0.0 mm 0.00 in0.0 mm
12:54 PM 23.4°F-4.8°C 22.1°F-5.5°C 95% 1.1 mph E1.8 kmh E 2.2 mph3.5 kmh 29.73 in1006.8 mb 0.00 in0.0 mm 0.00 in0.0 mm 0.00 in0.0 mm
12:59 PM 23.4°F-4.8°C 22.1°F-5.5°C 95% 1.8 mph NE2.9 kmh NE 2.2 mph3.5 kmh 29.73 in1006.8 mb 0.00 in0.0 mm 0.00 in0.0 mm 0.00 in0.0 mm
01:04 PM 23.5°F-4.7°C 22.3°F-5.4°C 95% 0.2 mph ENE0.3 kmh ENE 1.1 mph1.8 kmh 29.73 in1006.8 mb 0.00 in0.0 mm 0.00 in0.0 mm 0.00 in0.0 mm
01:09 PM 23.4°F-4.8°C 22.1°F-5.5°C 95% 0.2 mph ENE0.3 kmh ENE 1.1 mph1.8 kmh 29.72 in1006.4 mb 0.00 in0.0 mm 0.00 in0.0 mm 0.00 in0.0 mm
01:14 PM 23.5°F-4.7°C 22.3°F-5.4°C 95% 1.1 mph NE1.8 kmh NE 2.2 mph3.5 kmh 29.71 in1006.1 mb 0.00 in0.0 mm 0.00 in0.0 mm 0.00 in0.0 mm
01:19 PM 23.4°F-4.8°C 22.1°F-5.5°C 95% 0.9 mph ENE1.4 kmh ENE 2.2 mph3.5 kmh 29.71 in1006.1 mb 0.00 in0.0 mm 0.00 in0.0 mm 0.00 in0.0 mm
01:24 PM 23.7°F-4.6°C 22.5°F-5.3°C 95% 0.2 mph E0.3 kmh E 1.1 mph1.8 kmh 29.72 in1006.4 mb 0.00 in0.0 mm 0.00 in0.0 mm 0.00 in0.0 mm
01:29 PM 23.7°F-4.6°C 22.5°F-5.3°C 95% Calm Calm -- 29.72 in1006.4 mb 0.00 in0.0 mm 0.00 in0.0 mm 0.00 in0.0 mm
01:34 PM 24.1°F-4.4°C 22.8°F-5.1°C 95% 1.3 mph NE2.1 kmh NE 3.4 mph5.5 kmh 29.71 in1006.1 mb 0.00 in0.0 mm 0.00 in0.0 mm 0.00 in0.0 mm
01:39 PM 24.1°F-4.4°C 22.5°F-5.3°C 94% 0.2 mph ENE0.3 kmh ENE 1.1 mph1.8 kmh 29.71 in1006.1 mb 0.00 in0.0 mm 0.00 in0.0 mm 0.00 in0.0 mm
01:44 PM 23.7°F-4.6°C 22.5°F-5.3°C 95% 0.2 mph NE0.3 kmh NE 1.1 mph1.8 kmh 29.70 in1005.8 mb 0.00 in0.0 mm 0.00 in0.0 mm 0.00 in0.0 mm
01:49 PM 24.1°F-4.4°C 22.8°F-5.1°C 95% 0.9 mph E1.4 kmh E 2.2 mph3.5 kmh 29.70 in1005.8 mb 0.00 in0.0 mm 0.00 in0.0 mm 0.00 in0.0 mm
01:54 PM 23.7°F-4.6°C 22.5°F-5.3°C 95% 2.5 mph NE4.0 kmh NE 3.4 mph5.5 kmh 29.70 in1005.8 mb 0.00 in0.0 mm 0.00 in0.0 mm 0.00 in0.0 mm
01:59 PM 23.9°F-4.5°C 22.6°F-5.2°C 95% 0.9 mph ENE1.4 kmh ENE 1.1 mph1.8 kmh 29.70 in1005.8 mb 0.00 in0.0 mm 0.00 in0.0 mm 0.00 in0.0 mm
02:04 PM 23.7°F-4.6°C 22.5°F-5.3°C 95% Calm Calm -- 29.70 in1005.8 mb 0.00 in0.0 mm 0.00 in0.0 mm 0.00 in0.0 mm
02:09 PM 24.4°F-4.2°C 23.2°F-4.9°C 95% 2.2 mph NE3.5 kmh NE 2.2 mph3.5 kmh 29.70 in1005.8 mb 0.00 in0.0 mm 0.00 in0.0 mm 0.00 in0.0 mm
02:14 PM 24.3°F-4.3°C 22.6°F-5.2°C 94% 2.0 mph NE3.2 kmh NE 2.2 mph3.5 kmh 29.70 in1005.8 mb 0.00 in0.0 mm 0.00 in0.0 mm 0.00 in0.0 mm
02:19 PM 24.4°F-4.2°C 22.8°F-5.1°C 94% Calm Calm -- 29.70 in1005.8 mb 0.00 in0.0 mm 0.00 in0.0 mm 0.00 in0.0 mm
02:24 PM 24.1°F-4.4°C 22.5°F-5.3°C 94% Calm Calm -- 29.69 in1005.4 mb 0.00 in0.0 mm 0.00 in0.0 mm 0.00 in0.0 mm
02:29 PM 24.1°F-4.4°C 22.8°F-5.1°C 95% 0.7 mph ENE1.1 kmh ENE 2.2 mph3.5 kmh 29.69 in1005.4 mb 0.00 in0.0 mm 0.00 in0.0 mm 0.00 in0.0 mm
02:34 PM 24.1°F-4.4°C 22.5°F-5.3°C 94% 0.4 mph E0.6 kmh E 1.1 mph1.8 kmh 29.70 in1005.8 mb 0.00 in0.0 mm 0.00 in0.0 mm 0.00 in0.0 mm
02:39 PM 24.1°F-4.4°C 22.5°F-5.3°C 94% Calm Calm -- 29.69 in1005.4 mb 0.00 in0.0 mm 0.00 in0.0 mm 0.00 in0.0 mm
02:44 PM 23.9°F-4.5°C 22.3°F-5.4°C 94% 0.2 mph E0.3 kmh E 1.1 mph1.8 kmh 29.69 in1005.4 mb 0.00 in0.0 mm 0.00 in0.0 mm 0.00 in0.0 mm
02:49 PM 24.3°F-4.3°C 22.5°F-5.3°C 93% Calm Calm -- 29.69 in1005.4 mb 0.00 in0.0 mm 0.00 in0.0 mm 0.00 in0.0 mm
02:54 PM 24.3°F-4.3°C 22.5°F-5.3°C 93% 1.6 mph S2.6 kmh S 2.2 mph3.5 kmh 29.69 in1005.4 mb 0.00 in0.0 mm 0.00 in0.0 mm 0.00 in0.0 mm
02:59 PM 24.1°F-4.4°C 22.3°F-5.4°C 93% 0.2 mph ENE0.3 kmh ENE 1.1 mph1.8 kmh 29.69 in1005.4 mb 0.00 in0.0 mm 0.00 in0.0 mm 0.00 in0.0 mm
03:04 PM 24.1°F-4.4°C 22.3°F-5.4°C 93% 0.7 mph S1.1 kmh S 1.1 mph1.8 kmh 29.68 in1005.1 mb 0.00 in0.0 mm 0.00 in0.0 mm 0.00 in0.0 mm
03:09 PM 24.3°F-4.3°C 22.3°F-5.4°C 92% 0.7 mph S1.1 kmh S 1.1 mph1.8 kmh 29.68 in1005.1 mb 0.00 in0.0 mm 0.00 in0.0 mm 0.00 in0.0 mm
03:14 PM 24.3°F-4.3°C 22.3°F-5.4°C 92% Calm Calm -- 29.69 in1005.4 mb 0.00 in0.0 mm 0.00 in0.0 mm 0.00 in0.0 mm
03:19 PM 24.1°F-4.4°C 22.3°F-5.4°C 93% 0.9 mph NE1.4 kmh NE 2.2 mph3.5 kmh 29.68 in1005.1 mb 0.00 in0.0 mm 0.00 in0.0 mm 0.00 in0.0 mm
03:24 PM 23.9°F-4.5°C 22.1°F-5.5°C 93% 0.2 mph ENE0.3 kmh ENE 1.1 mph1.8 kmh 29.69 in1005.4 mb 0.00 in0.0 mm 0.00 in0.0 mm 0.00 in0.0 mm
03:29 PM 24.3°F-4.3°C 22.3°F-5.4°C 92% 1.3 mph SE2.1 kmh SE 2.2 mph3.5 kmh 29.69 in1005.4 mb 0.00 in0.0 mm 0.00 in0.0 mm 0.00 in0.0 mm
03:34 PM 24.4°F-4.2°C 22.3°F-5.4°C 91% Calm Calm -- 29.69 in1005.4 mb 0.00 in0.0 mm 0.00 in0.0 mm 0.00 in0.0 mm
03:39 PM 24.6°F-4.1°C 22.1°F-5.5°C 90% 0.9 mph SSW1.4 kmh SSW 1.1 mph1.8 kmh 29.69 in1005.4 mb 0.00 in0.0 mm 0.00 in0.0 mm 0.00 in0.0 mm
03:44 PM 24.3°F-4.3°C 22.3°F-5.4°C 92% 0.7 mph NE1.1 kmh NE 1.1 mph1.8 kmh 29.69 in1005.4 mb 0.00 in0.0 mm 0.00 in0.0 mm 0.00 in0.0 mm
03:49 PM 24.1°F-4.4°C 22.1°F-5.5°C 92% Calm Calm -- 29.70 in1005.8 mb 0.00 in0.0 mm 0.00 in0.0 mm 0.00 in0.0 mm
03:54 PM 24.4°F-4.2°C 22.5°F-5.3°C 92% 0.4 mph ENE0.6 kmh ENE 1.1 mph1.8 kmh 29.70 in1005.8 mb 0.00 in0.0 mm 0.00 in0.0 mm 0.00 in0.0 mm
03:59 PM 24.1°F-4.4°C 22.1°F-5.5°C 92% 1.1 mph ENE1.8 kmh ENE 1.1 mph1.8 kmh 29.69 in1005.4 mb 0.00 in0.0 mm 0.00 in0.0 mm 0.00 in0.0 mm
04:04 PM 24.4°F-4.2°C 22.3°F-5.4°C 91% Calm Calm -- 29.69 in1005.4 mb 0.00 in0.0 mm 0.00 in0.0 mm 0.00 in0.0 mm
04:09 PM 24.6°F-4.1°C 22.5°F-5.3°C 91% Calm Calm -- 29.70 in1005.8 mb 0.00 in0.0 mm 0.00 in0.0 mm 0.00 in0.0 mm
04:14 PM 24.6°F-4.1°C 22.5°F-5.3°C 91% 0.7 mph NE1.1 kmh NE 1.1 mph1.8 kmh 29.70 in1005.8 mb 0.00 in0.0 mm 0.00 in0.0 mm 0.00 in0.0 mm
04:19 PM 24.4°F-4.2°C 22.5°F-5.3°C 92% 0.9 mph E1.4 kmh E 1.1 mph1.8 kmh 29.70 in1005.8 mb 0.00 in0.0 mm 0.00 in0.0 mm 0.00 in0.0 mm
04:24 PM 24.4°F-4.2°C 22.5°F-5.3°C 92% 1.3 mph NE2.1 kmh NE 2.2 mph3.5 kmh 29.71 in1006.1 mb 0.00 in0.0 mm 0.00 in0.0 mm 0.00 in0.0 mm
04:29 PM 24.3°F-4.3°C 22.3°F-5.4°C 92% Calm Calm -- 29.70 in1005.8 mb 0.00 in0.0 mm 0.00 in0.0 mm 0.00 in0.0 mm
04:34 PM 24.4°F-4.2°C 22.3°F-5.4°C 91% Calm Calm -- 29.70 in1005.8 mb 0.00 in0.0 mm 0.00 in0.0 mm 0.00 in0.0 mm
04:39 PM 24.3°F-4.3°C 22.3°F-5.4°C 92% 0.7 mph NE1.1 kmh NE 2.2 mph3.5 kmh 29.70 in1005.8 mb 0.00 in0.0 mm 0.00 in0.0 mm 0.00 in0.0 mm
04:44 PM 24.1°F-4.4°C 22.1°F-5.5°C 92% 1.8 mph NE2.9 kmh NE 2.2 mph3.5 kmh 29.70 in1005.8 mb 0.00 in0.0 mm 0.00 in0.0 mm 0.00 in0.0 mm
04:49 PM 24.1°F-4.4°C 22.3°F-5.4°C 93% 2.5 mph NE4.0 kmh NE 3.4 mph5.5 kmh 29.70 in1005.8 mb 0.00 in0.0 mm 0.00 in0.0 mm 0.00 in0.0 mm
04:54 PM 23.9°F-4.5°C 22.1°F-5.5°C 93% 4.7 mph NE7.6 kmh NE 5.8 mph9.3 kmh 29.71 in1006.1 mb 0.00 in0.0 mm 0.00 in0.0 mm 0.00 in0.0 mm
04:59 PM 23.7°F-4.6°C 21.9°F-5.6°C 93% 3.6 mph NE5.8 kmh NE 4.5 mph7.2 kmh 29.70 in1005.8 mb 0.00 in0.0 mm 0.00 in0.0 mm 0.00 in0.0 mm
05:04 PM 23.7°F-4.6°C 21.9°F-5.6°C 93% 2.9 mph NE4.7 kmh NE 5.8 mph9.3 kmh 29.70 in1005.8 mb 0.00 in0.0 mm 0.00 in0.0 mm 0.00 in0.0 mm
05:09 PM 23.7°F-4.6°C 21.9°F-5.6°C 93% 0.2 mph ENE0.3 kmh ENE 1.1 mph1.8 kmh 29.70 in1005.8 mb 0.00 in0.0 mm 0.00 in0.0 mm 0.00 in0.0 mm
05:14 PM 23.7°F-4.6°C 21.9°F-5.6°C 93% 3.1 mph NE5.0 kmh NE 3.4 mph5.5 kmh 29.71 in1006.1 mb 0.00 in0.0 mm 0.00 in0.0 mm 0.00 in0.0 mm
05:19 PM 23.9°F-4.5°C 21.9°F-5.6°C 92% 0.2 mph ENE0.3 kmh ENE 1.1 mph1.8 kmh 29.70 in1005.8 mb 0.00 in0.0 mm 0.00 in0.0 mm 0.00 in0.0 mm
05:24 PM 24.1°F-4.4°C 22.1°F-5.5°C 92% 0.7 mph E1.1 kmh E 1.1 mph1.8 kmh 29.70 in1005.8 mb 0.00 in0.0 mm 0.00 in0.0 mm 0.00 in0.0 mm
05:29 PM 24.1°F-4.4°C 22.1°F-5.5°C 92% 5.1 mph NE8.2 kmh NE 5.8 mph9.3 kmh 29.70 in1005.8 mb 0.00 in0.0 mm 0.00 in0.0 mm 0.00 in0.0 mm
05:34 PM 23.9°F-4.5°C 22.1°F-5.5°C 93% 0.9 mph E1.4 kmh E 1.1 mph1.8 kmh 29.70 in1005.8 mb 0.00 in0.0 mm 0.00 in0.0 mm 0.00 in0.0 mm
05:39 PM 24.1°F-4.4°C 22.3°F-5.4°C 93% 1.3 mph NE2.1 kmh NE 2.2 mph3.5 kmh 29.70 in1005.8 mb 0.00 in0.0 mm 0.00 in0.0 mm 0.00 in0.0 mm
05:44 PM 23.9°F-4.5°C 22.1°F-5.5°C 93% Calm Calm -- 29.70 in1005.8 mb 0.00 in0.0 mm 0.00 in0.0 mm 0.00 in0.0 mm
05:49 PM 24.1°F-4.4°C 22.3°F-5.4°C 93% Calm Calm -- 29.70 in1005.8 mb 0.00 in0.0 mm 0.00 in0.0 mm 0.00 in0.0 mm
05:54 PM 24.1°F-4.4°C 22.3°F-5.4°C 93% Calm Calm -- 29.70 in1005.8 mb 0.00 in0.0 mm 0.00 in0.0 mm 0.00 in0.0 mm
05:59 PM 23.9°F-4.5°C 22.3°F-5.4°C 94% Calm Calm -- 29.70 in1005.8 mb 0.00 in0.0 mm 0.00 in0.0 mm 0.00 in0.0 mm
06:04 PM 23.9°F-4.5°C 22.1°F-5.5°C 93% 1.1 mph E1.8 kmh E 1.1 mph1.8 kmh 29.70 in1005.8 mb 0.00 in0.0 mm 0.00 in0.0 mm 0.00 in0.0 mm
06:09 PM 24.1°F-4.4°C 22.5°F-5.3°C 94% 0.2 mph ESE0.3 kmh ESE 1.1 mph1.8 kmh 29.71 in1006.1 mb 0.00 in0.0 mm 0.00 in0.0 mm 0.00 in0.0 mm
06:14 PM 23.9°F-4.5°C 22.3°F-5.4°C 94% 0.9 mph SE1.4 kmh SE 1.1 mph1.8 kmh 29.71 in1006.1 mb 0.00 in0.0 mm 0.00 in0.0 mm 0.00 in0.0 mm
06:19 PM 23.9°F-4.5°C 22.3°F-5.4°C 94% Calm Calm -- 29.70 in1005.8 mb 0.00 in0.0 mm 0.00 in0.0 mm 0.00 in0.0 mm
06:24 PM 23.9°F-4.5°C 22.3°F-5.4°C 94% 1.6 mph S2.6 kmh S 2.2 mph3.5 kmh 29.70 in1005.8 mb 0.00 in0.0 mm 0.00 in0.0 mm 0.00 in0.0 mm
06:29 PM 23.7°F-4.6°C 22.1°F-5.5°C 94% Calm Calm -- 29.70 in1005.8 mb 0.00 in0.0 mm 0.00 in0.0 mm 0.00 in0.0 mm
06:34 PM 23.9°F-4.5°C 22.3°F-5.4°C 94% Calm Calm -- 29.71 in1006.1 mb 0.00 in0.0 mm 0.00 in0.0 mm 0.00 in0.0 mm
06:39 PM 23.7°F-4.6°C 22.1°F-5.5°C 94% Calm Calm -- 29.72 in1006.4 mb 0.00 in0.0 mm 0.00 in0.0 mm 0.00 in0.0 mm
06:44 PM 23.7°F-4.6°C 22.1°F-5.5°C 94% Calm Calm -- 29.71 in1006.1 mb 0.00 in0.0 mm 0.00 in0.0 mm 0.00 in0.0 mm
06:49 PM 23.5°F-4.7°C 21.9°F-5.6°C 94% 0.2 mph SE0.3 kmh SE 1.1 mph1.8 kmh 29.71 in1006.1 mb 0.00 in0.0 mm 0.00 in0.0 mm 0.00 in0.0 mm
06:54 PM 23.5°F-4.7°C 22.3°F-5.4°C 95% Calm Calm -- 29.71 in1006.1 mb 0.00 in0.0 mm 0.00 in0.0 mm 0.00 in0.0 mm
06:59 PM 23.5°F-4.7°C 21.9°F-5.6°C 94% 0.7 mph SE1.1 kmh SE 1.1 mph1.8 kmh 29.71 in1006.1 mb 0.00 in0.0 mm 0.00 in0.0 mm 0.00 in0.0 mm
07:04 PM 23.5°F-4.7°C 21.9°F-5.6°C 94% Calm Calm -- 29.72 in1006.4 mb 0.00 in0.0 mm 0.00 in0.0 mm 0.00 in0.0 mm
07:09 PM 23.5°F-4.7°C 21.9°F-5.6°C 94% Calm Calm -- 29.72 in1006.4 mb 0.00 in0.0 mm 0.00 in0.0 mm 0.00 in0.0 mm
07:14 PM 23.5°F-4.7°C 21.9°F-5.6°C 94% Calm Calm -- 29.73 in1006.8 mb 0.00 in0.0 mm 0.00 in0.0 mm 0.00 in0.0 mm
07:19 PM 23.4°F-4.8°C 21.7°F-5.7°C 94% Calm Calm -- 29.72 in1006.4 mb 0.00 in0.0 mm 0.00 in0.0 mm 0.00 in0.0 mm
07:24 PM 23.4°F-4.8°C 21.7°F-5.7°C 94% Calm Calm -- 29.72 in1006.4 mb 0.00 in0.0 mm 0.00 in0.0 mm 0.00 in0.0 mm
07:29 PM 23.4°F-4.8°C 21.7°F-5.7°C 94% 0.7 mph SE1.1 kmh SE 1.1 mph1.8 kmh 29.73 in1006.8 mb 0.00 in0.0 mm 0.00 in0.0 mm 0.00 in0.0 mm
07:34 PM 23.4°F-4.8°C 21.7°F-5.7°C 94% 0.7 mph SE1.1 kmh SE 1.1 mph1.8 kmh 29.73 in1006.8 mb 0.00 in0.0 mm 0.00 in0.0 mm 0.00 in0.0 mm
07:39 PM 23.5°F-4.7°C 21.9°F-5.6°C 94% Calm Calm -- 29.73 in1006.8 mb 0.00 in0.0 mm 0.00 in0.0 mm 0.00 in0.0 mm
07:44 PM 23.5°F-4.7°C 21.9°F-5.6°C 94% Calm Calm -- 29.73 in1006.8 mb 0.00 in0.0 mm 0.00 in0.0 mm 0.00 in0.0 mm
07:49 PM 23.5°F-4.7°C 21.9°F-5.6°C 94% Calm Calm -- 29.74 in1007.1 mb 0.00 in0.0 mm 0.00 in0.0 mm 0.00 in0.0 mm
07:54 PM 23.5°F-4.7°C 21.9°F-5.6°C 94% Calm Calm -- 29.74 in1007.1 mb 0.00 in0.0 mm 0.00 in0.0 mm 0.00 in0.0 mm
07:59 PM 23.7°F-4.6°C 22.1°F-5.5°C 94% Calm Calm -- 29.75 in1007.5 mb 0.00 in0.0 mm 0.00 in0.0 mm 0.00 in0.0 mm
08:04 PM 23.7°F-4.6°C 22.1°F-5.5°C 94% Calm Calm -- 29.75 in1007.5 mb 0.00 in0.0 mm 0.00 in0.0 mm 0.00 in0.0 mm
08:09 PM 23.7°F-4.6°C 22.1°F-5.5°C 94% 0.2 mph SE0.3 kmh SE 1.1 mph1.8 kmh 29.75 in1007.5 mb 0.00 in0.0 mm 0.00 in0.0 mm 0.00 in0.0 mm
08:14 PM 23.7°F-4.6°C 21.9°F-5.6°C 93% Calm Calm -- 29.75 in1007.5 mb 0.00 in0.0 mm 0.00 in0.0 mm 0.00 in0.0 mm
08:19 PM 23.7°F-4.6°C 21.9°F-5.6°C 93% Calm Calm -- 29.75 in1007.5 mb 0.00 in0.0 mm 0.00 in0.0 mm 0.00 in0.0 mm
08:24 PM 23.7°F-4.6°C 22.1°F-5.5°C 94% 0.4 mph SE0.6 kmh SE 1.1 mph1.8 kmh 29.75 in1007.5 mb 0.00 in0.0 mm 0.00 in0.0 mm 0.00 in0.0 mm
08:29 PM 23.7°F-4.6°C 21.9°F-5.6°C 93% Calm Calm -- 29.74 in1007.1 mb 0.00 in0.0 mm 0.00 in0.0 mm 0.00 in0.0 mm
08:34 PM 23.7°F-4.6°C 21.9°F-5.6°C 93% Calm Calm -- 29.76 in1007.8 mb 0.00 in0.0 mm 0.00 in0.0 mm 0.00 in0.0 mm
08:39 PM 23.7°F-4.6°C 22.1°F-5.5°C 94% Calm Calm -- 29.76 in1007.8 mb 0.00 in0.0 mm 0.00 in0.0 mm 0.00 in0.0 mm
08:44 PM 23.7°F-4.6°C 22.1°F-5.5°C 94% Calm Calm -- 29.76 in1007.8 mb 0.00 in0.0 mm 0.00 in0.0 mm 0.00 in0.0 mm
08:49 PM 23.7°F-4.6°C 22.1°F-5.5°C 94% Calm Calm -- 29.75 in1007.5 mb 0.00 in0.0 mm 0.00 in0.0 mm 0.00 in0.0 mm
08:54 PM 23.7°F-4.6°C 22.1°F-5.5°C 94% Calm Calm -- 29.75 in1007.5 mb 0.00 in0.0 mm 0.00 in0.0 mm 0.00 in0.0 mm
08:59 PM 23.7°F-4.6°C 22.1°F-5.5°C 94% Calm Calm -- 29.75 in1007.5 mb 0.00 in0.0 mm 0.00 in0.0 mm 0.00 in0.0 mm
09:04 PM 23.7°F-4.6°C 22.1°F-5.5°C 94% Calm Calm -- 29.74 in1007.1 mb 0.00 in0.0 mm 0.00 in0.0 mm 0.00 in0.0 mm
09:09 PM 23.7°F-4.6°C 22.1°F-5.5°C 94% Calm Calm -- 29.75 in1007.5 mb 0.00 in0.0 mm 0.00 in0.0 mm 0.00 in0.0 mm
09:14 PM 23.7°F-4.6°C 22.1°F-5.5°C 94% Calm Calm -- 29.74 in1007.1 mb 0.00 in0.0 mm 0.00 in0.0 mm 0.00 in0.0 mm
09:19 PM 23.9°F-4.5°C 22.3°F-5.4°C 94% Calm Calm -- 29.76 in1007.8 mb 0.00 in0.0 mm 0.00 in0.0 mm 0.00 in0.0 mm
09:24 PM 23.9°F-4.5°C 22.3°F-5.4°C 94% 0.2 mph SE0.3 kmh SE 1.1 mph1.8 kmh 29.75 in1007.5 mb 0.00 in0.0 mm 0.00 in0.0 mm 0.00 in0.0 mm
09:29 PM 23.9°F-4.5°C 22.3°F-5.4°C 94% Calm Calm -- 29.76 in1007.8 mb 0.00 in0.0 mm 0.00 in0.0 mm 0.00 in0.0 mm
09:34 PM 23.9°F-4.5°C 22.3°F-5.4°C 94% 0.2 mph SSE0.3 kmh SSE 1.1 mph1.8 kmh 29.75 in1007.5 mb 0.00 in0.0 mm 0.00 in0.0 mm 0.00 in0.0 mm
09:39 PM 23.9°F-4.5°C 22.3°F-5.4°C 94% 0.7 mph S1.1 kmh S 1.1 mph1.8 kmh 29.76 in1007.8 mb 0.00 in0.0 mm 0.00 in0.0 mm 0.00 in0.0 mm
09:44 PM 23.9°F-4.5°C 22.3°F-5.4°C 94% 0.7 mph S1.1 kmh S 1.1 mph1.8 kmh 29.76 in1007.8 mb 0.00 in0.0 mm 0.00 in0.0 mm 0.00 in0.0 mm
09:49 PM 23.7°F-4.6°C 22.1°F-5.5°C 94% 0.7 mph S1.1 kmh S 1.1 mph1.8 kmh 29.76 in1007.8 mb 0.00 in0.0 mm 0.00 in0.0 mm 0.00 in0.0 mm
09:54 PM 23.7°F-4.6°C 22.1°F-5.5°C 94% Calm Calm -- 29.75 in1007.5 mb 0.00 in0.0 mm 0.00 in0.0 mm 0.00 in0.0 mm
09:59 PM 23.7°F-4.6°C 22.1°F-5.5°C 94% Calm Calm -- 29.73 in1006.8 mb 0.00 in0.0 mm 0.00 in0.0 mm 0.00 in0.0 mm
10:04 PM 23.5°F-4.7°C 21.9°F-5.6°C 94% Calm Calm -- 29.73 in1006.8 mb 0.00 in0.0 mm 0.00 in0.0 mm 0.00 in0.0 mm
10:09 PM 23.5°F-4.7°C 21.9°F-5.6°C 94% 0.7 mph S1.1 kmh S 1.1 mph1.8 kmh 29.75 in1007.5 mb 0.00 in0.0 mm 0.00 in0.0 mm 0.00 in0.0 mm
10:14 PM 23.5°F-4.7°C 21.9°F-5.6°C 94% Calm Calm -- 29.76 in1007.8 mb 0.00 in0.0 mm 0.00 in0.0 mm 0.00 in0.0 mm
10:19 PM 23.7°F-4.6°C 22.1°F-5.5°C 94% Calm Calm -- 29.76 in1007.8 mb 0.00 in0.0 mm 0.00 in0.0 mm 0.00 in0.0 mm
10:24 PM 23.7°F-4.6°C 22.1°F-5.5°C 94% Calm Calm -- 29.75 in1007.5 mb 0.00 in0.0 mm 0.00 in0.0 mm 0.00 in0.0 mm
10:29 PM 23.7°F-4.6°C 22.1°F-5.5°C 94% Calm Calm -- 29.75 in1007.5 mb 0.00 in0.0 mm 0.00 in0.0 mm 0.00 in0.0 mm
10:34 PM 23.7°F-4.6°C 22.1°F-5.5°C 94% Calm Calm -- 29.75 in1007.5 mb 0.00 in0.0 mm 0.00 in0.0 mm 0.00 in0.0 mm
10:39 PM 23.7°F-4.6°C 22.1°F-5.5°C 94% Calm Calm -- 29.75 in1007.5 mb 0.00 in0.0 mm 0.00 in0.0 mm 0.00 in0.0 mm
10:44 PM 23.7°F-4.6°C 21.9°F-5.6°C 93% 0.4 mph S0.6 kmh S 1.1 mph1.8 kmh 29.75 in1007.5 mb 0.00 in0.0 mm 0.00 in0.0 mm 0.00 in0.0 mm
10:49 PM 23.7°F-4.6°C 21.9°F-5.6°C 93% Calm Calm -- 29.74 in1007.1 mb 0.00 in0.0 mm 0.00 in0.0 mm 0.00 in0.0 mm
10:54 PM 23.5°F-4.7°C 21.7°F-5.7°C 93% Calm Calm -- 29.73 in1006.8 mb 0.00 in0.0 mm 0.00 in0.0 mm 0.00 in0.0 mm
10:59 PM 23.5°F-4.7°C 21.7°F-5.7°C 93% Calm Calm -- 29.74 in1007.1 mb 0.00 in0.0 mm 0.00 in0.0 mm 0.00 in0.0 mm
11:04 PM 23.5°F-4.7°C 21.7°F-5.7°C 93% Calm Calm -- 29.75 in1007.5 mb 0.00 in0.0 mm 0.00 in0.0 mm 0.00 in0.0 mm
11:09 PM 23.5°F-4.7°C 21.7°F-5.7°C 93% Calm Calm -- 29.76 in1007.8 mb 0.00 in0.0 mm 0.00 in0.0 mm 0.00 in0.0 mm
11:14 PM 23.5°F-4.7°C 21.7°F-5.7°C 93% Calm Calm -- 29.76 in1007.8 mb 0.00 in0.0 mm 0.00 in0.0 mm 0.00 in0.0 mm
11:19 PM 23.4°F-4.8°C 21.6°F-5.8°C 93% Calm Calm -- 29.75 in1007.5 mb 0.00 in0.0 mm 0.00 in0.0 mm 0.00 in0.0 mm
11:24 PM 23.4°F-4.8°C 21.7°F-5.7°C 94% Calm Calm -- 29.75 in1007.5 mb 0.00 in0.0 mm 0.00 in0.0 mm 0.00 in0.0 mm
11:29 PM 23.4°F-4.8°C 21.7°F-5.7°C 94% Calm Calm -- 29.75 in1007.5 mb 0.00 in0.0 mm 0.00 in0.0 mm 0.00 in0.0 mm
11:34 PM 23.5°F-4.7°C 21.9°F-5.6°C 94% Calm Calm -- 29.74 in1007.1 mb 0.00 in0.0 mm 0.00 in0.0 mm 0.00 in0.0 mm
11:39 PM 23.5°F-4.7°C 21.9°F-5.6°C 94% Calm Calm -- 29.75 in1007.5 mb 0.00 in0.0 mm 0.00 in0.0 mm 0.00 in0.0 mm
11:44 PM 23.5°F-4.7°C 21.9°F-5.6°C 94% Calm Calm -- 29.74 in1007.1 mb 0.00 in0.0 mm 0.00 in0.0 mm 0.00 in0.0 mm
11:49 PM 23.5°F-4.7°C 21.9°F-5.6°C 94% Calm Calm -- 29.75 in1007.5 mb 0.00 in0.0 mm 0.00 in0.0 mm 0.00 in0.0 mm
11:54 PM 23.5°F-4.7°C 21.9°F-5.6°C 94% Calm Calm -- 29.75 in1007.5 mb 0.00 in0.0 mm 0.00 in0.0 mm 0.00 in0.0 mm
11:59 PM 23.7°F-4.6°C 22.1°F-5.5°C 94% Calm Calm -- 29.75 in1007.5 mb 0.00 in0.0 mm 0.00 in0.0 mm 0.00 in0.0 mm